createdAt,value
2023-09-01T00:01:13.439Z,19.18
2023-09-01T00:04:51.375Z,19.12
2023-09-01T00:07:58.128Z,19.07
2023-09-01T00:11:03.965Z,19.09
2023-09-01T00:14:09.909Z,19.16
2023-09-01T00:17:16.126Z,19.04
2023-09-01T00:20:22.149Z,18.98
2023-09-01T00:23:29.824Z,19.08
2023-09-01T00:26:35.908Z,19.12
2023-09-01T00:29:42.428Z,19.19
2023-09-01T00:32:48.423Z,19.12
2023-09-01T00:35:55.701Z,19.10
2023-09-01T00:39:03.265Z,19.04
2023-09-01T00:42:09.539Z,18.88
2023-09-01T00:45:16.565Z,19.00
2023-09-01T00:48:23.153Z,19.15
2023-09-01T00:51:31.658Z,19.11
2023-09-01T00:54:37.978Z,18.95
2023-09-01T00:57:43.991Z,18.99
2023-09-01T01:00:50.266Z,18.91
2023-09-01T01:03:56.744Z,18.95
2023-09-01T01:07:21.624Z,18.94
2023-09-01T01:10:40.640Z,18.98
2023-09-01T01:13:49.436Z,18.87
2023-09-01T01:16:56.362Z,18.92
2023-09-01T01:20:16.963Z,18.96
2023-09-01T01:23:24.847Z,18.98
2023-09-01T01:26:30.449Z,18.90
2023-09-01T01:29:36.064Z,18.90
2023-09-01T01:32:44.329Z,18.95
2023-09-01T01:36:35.224Z,18.97
2023-09-01T01:39:44.368Z,18.86
2023-09-01T01:42:53.324Z,18.76
2023-09-01T01:46:00.496Z,18.92
2023-09-01T01:49:11.598Z,18.94
2023-09-01T01:52:17.751Z,18.94
2023-09-01T01:55:23.790Z,18.84
2023-09-01T01:58:29.559Z,18.78
2023-09-01T02:01:36.158Z,18.62
2023-09-01T02:04:42.246Z,18.68
2023-09-01T02:07:48.129Z,18.74
2023-09-01T02:10:54.481Z,18.80
2023-09-01T02:14:01.341Z,18.69
2023-09-01T02:17:08.720Z,18.67
2023-09-01T02:20:20.447Z,18.69
2023-09-01T02:23:28.855Z,18.75
2023-09-01T02:26:35.686Z,18.70
2023-09-01T02:29:42.543Z,18.67
2023-09-01T02:32:49.839Z,18.65
2023-09-01T02:36:28.071Z,18.66
2023-09-01T02:39:34.688Z,18.61
2023-09-01T02:42:42.754Z,18.58
2023-09-01T02:45:48.863Z,18.55
2023-09-01T02:48:55.162Z,18.23
2023-09-01T02:52:01.737Z,18.09
2023-09-01T02:55:08.184Z,18.23
2023-09-01T02:58:14.688Z,18.39
2023-09-01T03:01:21.759Z,18.36
2023-09-01T03:04:27.592Z,18.23
2023-09-01T03:07:34.046Z,18.24
2023-09-01T03:10:40.337Z,18.17
2023-09-01T03:13:47.921Z,18.16
2023-09-01T03:16:54.891Z,18.13
2023-09-01T03:20:01.839Z,18.05
2023-09-01T03:23:08.956Z,18.12
2023-09-01T03:26:14.866Z,17.83
2023-09-01T03:29:21.794Z,17.85
2023-09-01T03:32:32.711Z,17.85
2023-09-01T03:35:39.301Z,18.05
2023-09-01T03:38:45.815Z,17.98
2023-09-01T03:41:52.342Z,17.83
2023-09-01T03:44:58.221Z,17.85
2023-09-01T03:48:05.681Z,17.94
2023-09-01T03:51:19.387Z,18.04
2023-09-01T03:54:25.876Z,17.81
2023-09-01T03:57:32.091Z,17.63
2023-09-01T04:00:38.825Z,17.88
2023-09-01T04:03:46.378Z,17.83
2023-09-01T04:06:53.462Z,17.80
2023-09-01T04:10:00.162Z,17.90
2023-09-01T04:13:06.046Z,17.83
2023-09-01T04:16:12.516Z,17.66
2023-09-01T04:19:19.337Z,17.73
2023-09-01T04:22:25.648Z,17.60
2023-09-01T04:25:34.491Z,17.63
2023-09-01T04:28:41.325Z,17.64
2023-09-01T04:31:49.365Z,17.49
2023-09-01T04:34:57.603Z,17.56
2023-09-01T04:38:04.655Z,17.62
2023-09-01T04:41:11.230Z,17.65
2023-09-01T04:44:17.159Z,17.60
2023-09-01T04:47:22.960Z,17.66
2023-09-01T04:50:30.128Z,17.71
2023-09-01T04:53:36.463Z,17.69
2023-09-01T04:56:43.809Z,17.72
2023-09-01T04:59:50.183Z,17.65
2023-09-01T05:02:56.102Z,17.34
2023-09-01T05:06:02.536Z,17.25
2023-09-01T05:09:08.282Z,17.47
2023-09-01T05:12:13.963Z,17.64
2023-09-01T05:15:20.639Z,17.84
2023-09-01T05:18:27.807Z,17.96
2023-09-01T05:21:34.663Z,18.09
2023-09-01T05:24:42.943Z,18.09
2023-09-01T05:27:49.298Z,18.15
2023-09-01T05:30:59.042Z,18.13
2023-09-01T05:34:08.305Z,18.42
2023-09-01T05:37:15.230Z,18.44
2023-09-01T05:40:22.105Z,18.36
2023-09-01T05:43:27.742Z,18.43
2023-09-01T05:46:33.476Z,18.57
2023-09-01T05:49:39.286Z,18.64
2023-09-01T05:52:44.852Z,18.81
2023-09-01T05:55:50.472Z,18.78
2023-09-01T05:58:55.385Z,18.76
2023-09-01T06:02:01.360Z,18.96
2023-09-01T06:05:07.248Z,19.06
2023-09-01T06:08:12.852Z,19.10
2023-09-01T06:11:19.179Z,19.21
2023-09-01T06:14:24.702Z,19.41
2023-09-01T06:17:45.381Z,19.45
2023-09-01T06:20:52.392Z,19.57
2023-09-01T06:23:57.952Z,19.60
2023-09-01T06:27:04.613Z,19.57
2023-09-01T06:30:09.948Z,19.64
2023-09-01T06:33:15.702Z,19.71
2023-09-01T06:36:21.186Z,19.87
2023-09-01T06:39:26.715Z,19.95
2023-09-01T06:42:32.613Z,20.05
2023-09-01T06:45:38.755Z,19.99
2023-09-01T06:48:44.860Z,20.11
2023-09-01T06:51:50.631Z,20.15
2023-09-01T06:54:56.807Z,20.29
2023-09-01T06:58:02.218Z,20.14
2023-09-01T07:01:12.772Z,20.33
2023-09-01T07:04:18.571Z,20.38
2023-09-01T07:07:24.224Z,20.39
2023-09-01T07:10:29.865Z,20.50
2023-09-01T07:13:35.394Z,20.65
2023-09-01T07:16:41.120Z,20.61
2023-09-01T07:19:47.038Z,20.83
2023-09-01T07:22:52.261Z,20.86
2023-09-01T07:26:00.737Z,21.01
2023-09-01T07:29:06.417Z,20.89
2023-09-01T07:32:11.998Z,21.09
2023-09-01T07:35:17.899Z,21.08
2023-09-01T07:38:23.232Z,21.13
2023-09-01T07:41:28.774Z,21.35
2023-09-01T07:44:34.302Z,21.44
2023-09-01T07:47:40.420Z,21.63
2023-09-01T07:50:47.554Z,21.48
2023-09-01T07:53:53.105Z,21.59
2023-09-01T07:56:59.010Z,21.86
2023-09-01T08:00:08.852Z,21.60
2023-09-01T08:03:20.586Z,21.84
2023-09-01T08:06:32.122Z,22.09
2023-09-01T08:09:37.952Z,22.07
2023-09-01T08:12:44.978Z,22.09
2023-09-01T08:15:51.056Z,21.89
2023-09-01T08:19:00.535Z,22.06
2023-09-01T08:22:05.780Z,21.97
2023-09-01T08:25:11.735Z,22.22
2023-09-01T08:28:18.129Z,22.27
2023-09-01T08:31:23.756Z,22.23
2023-09-01T08:34:29.849Z,22.41
2023-09-01T08:37:35.797Z,22.17
2023-09-01T08:40:41.484Z,22.25
2023-09-01T08:43:52.077Z,22.31
2023-09-01T08:46:59.277Z,22.35
2023-09-01T08:50:05.401Z,22.53
2023-09-01T08:53:11.526Z,22.69
2023-09-01T08:56:16.783Z,22.62
2023-09-01T08:59:22.696Z,22.68
2023-09-01T09:02:28.026Z,22.72
2023-09-01T09:05:35.333Z,22.76
2023-09-01T09:08:40.708Z,22.88
2023-09-01T09:12:00.079Z,23.24
2023-09-01T09:15:06.935Z,23.40
2023-09-01T09:18:29.080Z,22.94
2023-09-01T09:21:35.300Z,22.73
2023-09-01T09:24:41.254Z,22.99
2023-09-01T09:27:47.263Z,23.34
2023-09-01T09:30:56.260Z,23.13
2023-09-01T09:34:17.083Z,23.38
2023-09-01T09:37:22.737Z,23.68
2023-09-01T09:40:29.289Z,23.41
2023-09-01T09:43:48.781Z,23.63
2023-09-01T09:46:55.694Z,23.82
2023-09-01T09:50:04.154Z,23.73
2023-09-01T09:53:14.889Z,23.95
2023-09-01T09:56:36.854Z,23.65
2023-09-01T10:00:03.029Z,23.70
2023-09-01T10:03:22.919Z,23.69
2023-09-01T10:06:29.424Z,23.16
2023-09-01T10:09:35.075Z,23.23
2023-09-01T10:12:41.722Z,23.25
2023-09-01T10:15:49.890Z,23.63
2023-09-01T10:18:56.178Z,23.56
2023-09-01T10:22:02.385Z,23.58
2023-09-01T10:25:27.347Z,23.63
2023-09-01T10:28:53.455Z,23.52
2023-09-01T10:32:18.040Z,23.89
2023-09-01T10:35:39.811Z,24.21
2023-09-01T10:38:45.176Z,24.27
2023-09-01T10:42:01.784Z,24.10
2023-09-01T10:45:09.568Z,24.09
2023-09-01T10:48:54.054Z,24.27
2023-09-01T10:52:13.497Z,24.28
2023-09-01T10:55:19.049Z,24.59
2023-09-01T10:58:24.728Z,24.71
2023-09-01T11:01:32.507Z,24.65
2023-09-01T11:04:41.568Z,24.58
2023-09-01T11:08:18.989Z,24.56
2023-09-01T11:11:24.906Z,24.81
2023-09-01T11:14:32.321Z,24.82
2023-09-01T11:17:40.126Z,24.72
2023-09-01T11:20:46.999Z,24.69
2023-09-01T11:24:01.556Z,24.74
2023-09-01T11:27:07.606Z,24.67
2023-09-01T11:30:14.001Z,24.67
2023-09-01T11:33:23.546Z,24.71
2023-09-01T11:36:29.435Z,24.73
2023-09-01T11:39:34.600Z,24.75
2023-09-01T11:42:43.948Z,24.92
2023-09-01T11:45:50.051Z,25.10
2023-09-01T11:48:55.988Z,25.02
2023-09-01T11:52:02.262Z,25.08
2023-09-01T11:55:08.294Z,24.97
2023-09-01T11:58:13.917Z,24.93
2023-09-01T12:01:29.539Z,24.73
2023-09-01T12:04:34.914Z,24.94
2023-09-01T12:07:40.244Z,25.21
2023-09-01T12:10:45.732Z,25.21
2023-09-01T12:16:43.112Z,24.78
2023-09-01T12:19:51.969Z,24.78
2023-09-01T12:22:58.213Z,25.16
2023-09-01T12:26:04.689Z,25.16
2023-09-01T12:29:11.320Z,25.18
2023-09-01T12:32:18.424Z,25.36
2023-09-01T12:35:23.613Z,25.35
2023-09-01T12:38:29.425Z,25.47
2023-09-01T12:41:34.792Z,25.17
2023-09-01T12:44:40.247Z,25.13
2023-09-01T12:47:45.459Z,25.35
2023-09-01T12:50:51.437Z,25.12
2023-09-01T12:53:57.042Z,25.19
2023-09-01T12:57:02.393Z,25.53
2023-09-01T13:00:08.852Z,25.44
2023-09-01T13:03:14.522Z,25.50
2023-09-01T13:06:20.564Z,25.80
2023-09-01T13:09:25.930Z,26.00
2023-09-01T13:12:31.897Z,26.06
2023-09-01T13:15:37.360Z,26.27
2023-09-01T13:18:43.270Z,26.28
2023-09-01T13:21:48.471Z,26.14
2023-09-01T13:24:54.453Z,26.48
2023-09-01T13:27:59.804Z,26.49
2023-09-01T13:31:05.625Z,26.57
2023-09-01T13:34:11.205Z,26.24
2023-09-01T13:37:17.104Z,26.23
2023-09-01T13:40:22.385Z,26.48
2023-09-01T13:43:28.197Z,26.52
2023-09-01T13:46:35.537Z,26.36
2023-09-01T13:49:44.389Z,26.20
2023-09-01T13:52:50.732Z,26.24
2023-09-01T13:55:55.918Z,26.23
2023-09-01T13:59:01.775Z,26.54
2023-09-01T14:02:08.000Z,26.67
2023-09-01T14:05:14.090Z,26.71
2023-09-01T14:08:19.711Z,26.30
2023-09-01T14:11:25.026Z,26.43
2023-09-01T14:14:31.221Z,26.75
2023-09-01T14:17:36.478Z,26.82
2023-09-01T14:20:42.425Z,26.80
2023-09-01T14:23:49.501Z,26.84
2023-09-01T14:26:57.364Z,26.69
2023-09-01T14:30:02.676Z,26.76
2023-09-01T14:33:16.657Z,26.87
2023-09-01T14:36:24.795Z,26.61
2023-09-01T14:39:30.056Z,26.57
2023-09-01T14:42:35.543Z,26.60
2023-09-01T14:45:41.367Z,26.78
2023-09-01T14:48:47.863Z,26.86
2023-09-01T14:51:53.248Z,26.57
2023-09-01T14:54:59.499Z,26.88
2023-09-01T14:58:05.233Z,26.81
2023-09-01T15:01:10.534Z,26.99
2023-09-01T15:04:16.353Z,26.71
2023-09-01T15:07:23.390Z,26.66
2023-09-01T15:10:28.844Z,26.81
2023-09-01T15:13:34.056Z,27.00
2023-09-01T15:16:40.045Z,26.79
2023-09-01T15:19:48.791Z,26.97
2023-09-01T15:22:54.290Z,27.06
2023-09-01T15:25:59.979Z,26.69
2023-09-01T15:29:05.734Z,26.86
2023-09-01T15:32:10.989Z,26.65
2023-09-01T15:35:22.455Z,26.91
2023-09-01T15:38:31.367Z,26.56
2023-09-01T15:41:36.906Z,26.68
2023-09-01T15:44:44.380Z,26.77
2023-09-01T15:47:49.988Z,26.67
2023-09-01T15:50:56.489Z,26.64
2023-09-01T15:54:01.882Z,26.63
2023-09-01T15:57:07.094Z,26.61
2023-09-01T16:00:13.075Z,26.51
2023-09-01T16:03:26.584Z,26.39
2023-09-01T16:06:41.999Z,26.34
2023-09-01T16:09:47.320Z,26.26
2023-09-01T16:12:53.627Z,26.29
2023-09-01T16:16:04.893Z,26.16
2023-09-01T16:19:12.254Z,26.18
2023-09-01T16:22:18.641Z,26.13
2023-09-01T16:25:24.670Z,26.08
2023-09-01T16:28:30.437Z,26.22
2023-09-01T16:31:39.737Z,26.10
2023-09-01T16:34:45.001Z,25.93
2023-09-01T16:37:50.503Z,25.94
2023-09-01T16:40:56.617Z,25.93
2023-09-01T16:44:03.056Z,25.92
2023-09-01T16:47:08.340Z,25.91
2023-09-01T16:50:13.741Z,25.91
2023-09-01T16:53:19.571Z,25.62
2023-09-01T16:56:25.889Z,25.64
2023-09-01T16:59:31.490Z,25.53
2023-09-01T17:02:37.322Z,25.26
2023-09-01T17:05:42.757Z,25.08
2023-09-01T17:08:50.000Z,24.97
2023-09-01T17:11:55.869Z,24.91
2023-09-01T17:15:02.531Z,24.83
2023-09-01T17:18:08.664Z,24.77
2023-09-01T17:21:14.184Z,24.68
2023-09-01T17:24:19.865Z,24.77
2023-09-01T17:27:27.651Z,24.67
2023-09-01T17:30:33.561Z,24.58
2023-09-01T17:33:39.501Z,24.55
2023-09-01T17:36:45.697Z,24.50
2023-09-01T17:39:51.303Z,24.41
2023-09-01T17:42:57.187Z,24.20
2023-09-01T17:46:03.212Z,24.06
2023-09-01T17:49:08.888Z,24.03
2023-09-01T17:52:14.680Z,24.11
2023-09-01T17:55:21.359Z,24.13
2023-09-01T17:58:27.291Z,24.11
2023-09-01T18:01:32.982Z,24.07
2023-09-01T18:04:38.321Z,23.99
2023-09-01T18:07:45.487Z,23.62
2023-09-01T18:10:53.364Z,23.55
2023-09-01T18:14:01.778Z,23.57
2023-09-01T18:17:11.485Z,23.43
2023-09-01T18:20:20.162Z,23.41
2023-09-01T18:23:28.497Z,23.30
2023-09-01T18:26:37.851Z,23.27
2023-09-01T18:29:45.283Z,23.23
2023-09-01T18:32:53.774Z,23.13
2023-09-01T18:36:00.606Z,23.13
2023-09-01T18:39:08.239Z,23.04
2023-09-01T18:42:39.573Z,23.09
2023-09-01T18:45:49.804Z,22.96
2023-09-01T18:49:06.781Z,22.94
2023-09-01T18:52:14.876Z,22.81
2023-09-01T18:55:22.691Z,22.84
2023-09-01T18:58:30.174Z,22.84
2023-09-01T19:01:38.760Z,22.78
2023-09-01T19:04:46.605Z,22.73
2023-09-01T19:07:53.159Z,22.80
2023-09-01T19:11:08.143Z,22.78
2023-09-01T19:14:16.230Z,22.73
2023-09-01T19:17:23.288Z,22.72
2023-09-01T19:20:34.577Z,22.62
2023-09-01T19:23:41.763Z,22.65
2023-09-01T19:26:48.336Z,22.64
2023-09-01T19:29:56.253Z,22.54
2023-09-01T19:33:05.207Z,22.53
2023-09-01T19:36:18.580Z,22.47
2023-09-01T19:39:27.331Z,22.44
2023-09-01T19:42:34.136Z,22.46
2023-09-01T19:45:41.580Z,22.50
2023-09-01T19:48:49.597Z,22.38
2023-09-01T19:51:56.954Z,22.27
2023-09-01T19:55:11.000Z,22.28
2023-09-01T19:58:18.989Z,22.28
2023-09-01T20:01:28.309Z,22.29
2023-09-01T20:04:37.524Z,22.22
2023-09-01T20:07:46.092Z,22.27
2023-09-01T20:10:53.898Z,21.86
2023-09-01T20:14:03.026Z,21.85
2023-09-01T20:17:11.005Z,21.91
2023-09-01T20:20:18.836Z,22.01
2023-09-01T20:23:27.075Z,21.96
2023-09-01T20:26:34.516Z,21.75
2023-09-01T20:29:41.284Z,21.69
2023-09-01T20:32:49.138Z,21.68
2023-09-01T20:35:57.302Z,21.74
2023-09-01T20:39:04.679Z,21.53
2023-09-01T20:42:12.386Z,21.61
2023-09-01T20:45:19.352Z,21.59
2023-09-01T20:48:26.699Z,21.48
2023-09-01T20:51:33.076Z,21.45
2023-09-01T20:54:44.984Z,21.28
2023-09-01T20:57:52.697Z,21.30
2023-09-01T21:00:59.560Z,21.25
2023-09-01T21:04:06.932Z,21.36
2023-09-01T21:07:14.999Z,21.32
2023-09-01T21:10:22.172Z,21.25
2023-09-01T21:13:29.153Z,21.27
2023-09-01T21:16:36.247Z,21.46
2023-09-01T21:19:44.426Z,21.30
2023-09-01T21:22:51.371Z,20.99
2023-09-01T21:25:59.680Z,20.96
2023-09-01T21:29:08.435Z,20.87
2023-09-01T21:32:22.525Z,20.88
2023-09-01T21:35:35.025Z,20.75
2023-09-01T21:38:43.540Z,20.88
2023-09-01T21:41:50.182Z,20.71
2023-09-01T21:45:46.837Z,20.65
2023-09-01T21:49:30.859Z,20.79
2023-09-01T21:52:48.035Z,20.71
2023-09-01T21:55:53.785Z,20.79
2023-09-01T21:59:00.680Z,20.68
2023-09-01T22:02:07.633Z,20.52
2023-09-01T22:05:13.983Z,20.63
2023-09-01T22:08:22.069Z,20.70
2023-09-01T22:11:27.747Z,20.62
2023-09-01T22:14:34.486Z,20.55
2023-09-01T22:17:40.586Z,20.70
2023-09-01T22:20:48.735Z,20.59
2023-09-01T22:23:54.797Z,20.58
2023-09-01T22:27:01.918Z,20.64
2023-09-01T22:30:08.739Z,20.63
2023-09-01T22:33:14.994Z,20.57
2023-09-01T22:36:20.983Z,20.60
2023-09-01T22:39:27.211Z,20.51
2023-09-01T22:42:34.544Z,20.63
2023-09-01T22:45:41.011Z,20.59
2023-09-01T22:48:47.126Z,20.49
2023-09-01T22:51:53.227Z,20.49
2023-09-01T22:54:59.985Z,20.53
2023-09-01T22:58:06.377Z,20.31
2023-09-01T23:01:13.125Z,20.33
2023-09-01T23:04:19.568Z,20.20
2023-09-01T23:07:25.348Z,20.20
2023-09-01T23:10:31.159Z,20.25
2023-09-01T23:13:36.720Z,20.24
2023-09-01T23:16:41.997Z,20.27
2023-09-01T23:19:48.156Z,20.25
2023-09-01T23:22:55.718Z,20.29
2023-09-01T23:26:01.758Z,20.25
2023-09-01T23:29:08.155Z,20.27
2023-09-01T23:32:14.814Z,20.30
2023-09-01T23:35:21.494Z,20.21
2023-09-01T23:38:27.541Z,20.31
2023-09-01T23:41:33.651Z,20.23
2023-09-01T23:44:40.205Z,20.17
2023-09-01T23:47:47.557Z,20.16
2023-09-01T23:50:54.849Z,20.03
2023-09-01T23:54:00.789Z,20.15
2023-09-01T23:57:07.581Z,20.09
